sensor_id;sensor_type;location;lat;lon;timestamp;pressure;altitude;pressure_sealevel;temperature;humidity
12471;BME280;36499;46.484;13.832;2024-01-11T00:00:09;93936.16;;;-5.82;100.00
12471;BME280;36499;46.484;13.832;2024-01-11T00:02:37;93935.53;;;-5.87;100.00
12471;BME280;36499;46.484;13.832;2024-01-11T00:05:05;93933.13;;;-5.90;100.00
12471;BME280;36499;46.484;13.832;2024-01-11T00:07:32;93921.03;;;-5.83;100.00
12471;BME280;36499;46.484;13.832;2024-01-11T00:10:00;93918.63;;;-5.87;100.00
12471;BME280;36499;46.484;13.832;2024-01-11T00:12:27;93918.50;;;-5.83;100.00
12471;BME280;36499;46.484;13.832;2024-01-11T00:14:53;93919.50;;;-5.88;100.00
12471;BME280;36499;46.484;13.832;2024-01-11T00:17:20;93919.69;;;-5.92;100.00
12471;BME280;36499;46.484;13.832;2024-01-11T00:19:48;93926.59;;;-5.96;100.00
12471;BME280;36499;46.484;13.832;2024-01-11T00:22:16;93916.97;;;-5.88;100.00
12471;BME280;36499;46.484;13.832;2024-01-11T00:24:43;93921.09;;;-5.85;100.00
12471;BME280;36499;46.484;13.832;2024-01-11T00:27:09;93915.16;;;-5.84;100.00
12471;BME280;36499;46.484;13.832;2024-01-11T00:29:36;93923.00;;;-5.90;100.00
12471;BME280;36499;46.484;13.832;2024-01-11T00:32:03;93921.34;;;-5.91;100.00
12471;BME280;36499;46.484;13.832;2024-01-11T00:34:30;93918.81;;;-5.91;100.00
12471;BME280;36499;46.484;13.832;2024-01-11T00:36:58;93914.44;;;-5.88;100.00
12471;BME280;36499;46.484;13.832;2024-01-11T00:39:25;93919.31;;;-5.83;100.00
12471;BME280;36499;46.484;13.832;2024-01-11T00:41:52;93904.19;;;-5.85;100.00
12471;BME280;36499;46.484;13.832;2024-01-11T00:44:19;93915.22;;;-5.86;100.00
12471;BME280;36499;46.484;13.832;2024-01-11T00:46:46;93916.59;;;-5.78;100.00
12471;BME280;36499;46.484;13.832;2024-01-11T00:49:13;93911.28;;;-5.72;100.00
12471;BME280;36499;46.484;13.832;2024-01-11T00:51:40;93914.81;;;-5.76;100.00
12471;BME280;36499;46.484;13.832;2024-01-11T00:54:08;93917.41;;;-5.78;100.00
12471;BME280;36499;46.484;13.832;2024-01-11T00:56:35;93912.22;;;-5.75;100.00
12471;BME280;36499;46.484;13.832;2024-01-11T00:59:01;93913.19;;;-5.77;100.00
12471;BME280;36499;46.484;13.832;2024-01-11T01:01:29;93917.34;;;-5.76;100.00
12471;BME280;36499;46.484;13.832;2024-01-11T01:03:56;93919.00;;;-5.75;100.00
12471;BME280;36499;46.484;13.832;2024-01-11T01:06:23;93918.38;;;-5.80;100.00
12471;BME280;36499;46.484;13.832;2024-01-11T01:08:50;93922.47;;;-5.78;100.00
12471;BME280;36499;46.484;13.832;2024-01-11T01:11:18;93917.88;;;-5.89;100.00
12471;BME280;36499;46.484;13.832;2024-01-11T01:13:45;93918.00;;;-5.92;100.00
12471;BME280;36499;46.484;13.832;2024-01-11T01:16:12;93910.47;;;-5.93;100.00
12471;BME280;36499;46.484;13.832;2024-01-11T01:18:40;93916.34;;;-5.93;100.00
12471;BME280;36499;46.484;13.832;2024-01-11T01:21:07;93920.59;;;-5.93;100.00
12471;BME280;36499;46.484;13.832;2024-01-11T01:23:33;93918.13;;;-5.95;100.00
12471;BME280;36499;46.484;13.832;2024-01-11T01:26:00;93918.63;;;-5.87;100.00
12471;BME280;36499;46.484;13.832;2024-01-11T01:28:28;93915.91;;;-5.82;100.00
12471;BME280;36499;46.484;13.832;2024-01-11T01:30:55;93916.66;;;-5.80;100.00
12471;BME280;36499;46.484;13.832;2024-01-11T01:33:22;93909.13;;;-5.81;100.00
12471;BME280;36499;46.484;13.832;2024-01-11T01:35:49;93911.41;;;-5.96;100.00
12471;BME280;36499;46.484;13.832;2024-01-11T01:38:16;93918.00;;;-5.92;100.00
12471;BME280;36499;46.484;13.832;2024-01-11T01:40:43;93909.81;;;-5.97;100.00
12471;BME280;36499;46.484;13.832;2024-01-11T01:43:10;93904.59;;;-5.94;100.00
12471;BME280;36499;46.484;13.832;2024-01-11T01:45:39;93901.03;;;-5.90;100.00
12471;BME280;36499;46.484;13.832;2024-01-11T01:48:07;93915.69;;;-5.96;100.00
12471;BME280;36499;46.484;13.832;2024-01-11T01:50:34;93904.38;;;-6.08;100.00
12471;BME280;36499;46.484;13.832;2024-01-11T01:53:01;93903.59;;;-6.10;100.00
12471;BME280;36499;46.484;13.832;2024-01-11T01:55:29;93892.47;;;-6.06;100.00
12471;BME280;36499;46.484;13.832;2024-01-11T01:57:57;93898.53;;;-6.10;100.00
12471;BME280;36499;46.484;13.832;2024-01-11T02:00:25;93891.78;;;-6.09;100.00
12471;BME280;36499;46.484;13.832;2024-01-11T02:02:55;93904.44;;;-6.09;100.00
12471;BME280;36499;46.484;13.832;2024-01-11T02:05:22;93903.03;;;-6.16;100.00
12471;BME280;36499;46.484;13.832;2024-01-11T02:07:49;93903.03;;;-6.16;100.00
12471;BME280;36499;46.484;13.832;2024-01-11T02:10:16;93897.03;;;-6.14;100.00
12471;BME280;36499;46.484;13.832;2024-01-11T02:12:44;93891.22;;;-6.16;100.00
12471;BME280;36499;46.484;13.832;2024-01-11T02:15:11;93892.84;;;-6.15;100.00
12471;BME280;36499;46.484;13.832;2024-01-11T02:17:40;93889.25;;;-6.09;100.00
12471;BME280;36499;46.484;13.832;2024-01-11T02:20:10;93885.00;;;-6.09;100.00
12471;BME280;36499;46.484;13.832;2024-01-11T02:22:39;93895.63;;;-6.01;100.00
12471;BME280;36499;46.484;13.832;2024-01-11T02:25:08;93887.28;;;-6.03;100.00
12471;BME280;36499;46.484;13.832;2024-01-11T02:27:45;93889.75;;;-6.01;100.00
12471;BME280;36499;46.484;13.832;2024-01-11T02:30:12;93885.97;;;-6.11;100.00
12471;BME280;36499;46.484;13.832;2024-01-11T02:32:39;93879.19;;;-6.11;100.00
12471;BME280;36499;46.484;13.832;2024-01-11T02:35:07;93879.44;;;-6.17;100.00
12471;BME280;36499;46.484;13.832;2024-01-11T02:37:35;93881.78;;;-6.12;100.00
12471;BME280;36499;46.484;13.832;2024-01-11T02:40:03;93871.03;;;-6.18;100.00
12471;BME280;36499;46.484;13.832;2024-01-11T02:42:32;93871.88;;;-6.17;100.00
12471;BME280;36499;46.484;13.832;2024-01-11T02:44:59;93879.38;;;-6.15;100.00
12471;BME280;36499;46.484;13.832;2024-01-11T02:47:25;93874.31;;;-6.15;100.00
12471;BME280;36499;46.484;13.832;2024-01-11T02:49:52;93875.28;;;-6.18;100.00
12471;BME280;36499;46.484;13.832;2024-01-11T02:52:19;93871.66;;;-6.12;100.00
12471;BME280;36499;46.484;13.832;2024-01-11T02:54:46;93870.09;;;-6.15;100.00
12471;BME280;36499;46.484;13.832;2024-01-11T02:57:13;93871.03;;;-6.18;100.00
12471;BME280;36499;46.484;13.832;2024-01-11T02:59:42;93864.91;;;-6.12;100.00
12471;BME280;36499;46.484;13.832;2024-01-11T03:02:09;93866.81;;;-6.17;100.00
12471;BME280;36499;46.484;13.832;2024-01-11T03:04:36;93857.31;;;-6.12;100.00
12471;BME280;36499;46.484;13.832;2024-01-11T03:07:03;93852.63;;;-6.21;100.00
12471;BME280;36499;46.484;13.832;2024-01-11T03:09:30;93856.06;;;-6.22;100.00
12471;BME280;36499;46.484;13.832;2024-01-11T03:11:57;93862.81;;;-6.23;100.00
12471;BME280;36499;46.484;13.832;2024-01-11T03:14:24;93854.34;;;-6.22;100.00
12471;BME280;36499;46.484;13.832;2024-01-11T03:16:52;93855.16;;;-6.21;100.00
12471;BME280;36499;46.484;13.832;2024-01-11T03:19:19;93848.59;;;-6.25;100.00
12471;BME280;36499;46.484;13.832;2024-01-11T03:21:46;93849.03;;;-6.15;100.00
12471;BME280;36499;46.484;13.832;2024-01-11T03:24:13;93854.97;;;-6.16;100.00
12471;BME280;36499;46.484;13.832;2024-01-11T03:26:41;93846.75;;;-6.22;100.00
12471;BME280;36499;46.484;13.832;2024-01-11T03:29:08;93837.41;;;-6.20;100.00
12471;BME280;36499;46.484;13.832;2024-01-11T03:31:35;93842.41;;;-6.18;100.00
12471;BME280;36499;46.484;13.832;2024-01-11T03:34:04;93839.81;;;-6.16;100.00
12471;BME280;36499;46.484;13.832;2024-01-11T03:36:31;93837.91;;;-6.11;100.00
12471;BME280;36499;46.484;13.832;2024-01-11T03:38:58;93834.41;;;-6.09;100.00
12471;BME280;36499;46.484;13.832;2024-01-11T03:41:25;93839.34;;;-6.06;100.00
12471;BME280;36499;46.484;13.832;2024-01-11T03:43:52;93835.19;;;-6.07;100.00
12471;BME280;36499;46.484;13.832;2024-01-11T03:46:18;93835.75;;;-6.00;100.00
12471;BME280;36499;46.484;13.832;2024-01-11T03:48:45;93835.94;;;-6.05;100.00
12471;BME280;36499;46.484;13.832;2024-01-11T03:51:14;93831.84;;;-5.89;100.00
12471;BME280;36499;46.484;13.832;2024-01-11T03:53:41;93836.13;;;-5.91;100.00
12471;BME280;36499;46.484;13.832;2024-01-11T03:56:08;93830.81;;;-5.85;100.00
12471;BME280;36499;46.484;13.832;2024-01-11T03:58:35;93827.78;;;-5.93;100.00
12471;BME280;36499;46.484;13.832;2024-01-11T04:01:04;93830.31;;;-5.93;100.00
12471;BME280;36499;46.484;13.832;2024-01-11T04:03:32;93829.16;;;-5.86;100.00
12471;BME280;36499;46.484;13.832;2024-01-11T04:05:59;93820.75;;;-5.86;100.00
12471;BME280;36499;46.484;13.832;2024-01-11T04:08:27;93820.88;;;-5.89;100.00
12471;BME280;36499;46.484;13.832;2024-01-11T04:10:54;93822.72;;;-5.93;100.00
12471;BME280;36499;46.484;13.832;2024-01-11T04:13:21;93824.03;;;-5.84;100.00
12471;BME280;36499;46.484;13.832;2024-01-11T04:15:48;93824.03;;;-5.84;100.00
12471;BME280;36499;46.484;13.832;2024-01-11T04:18:15;93813.03;;;-5.83;100.00
12471;BME280;36499;46.484;13.832;2024-01-11T04:20:42;93809.13;;;-5.90;100.00
12471;BME280;36499;46.484;13.832;2024-01-11T04:23:09;93813.38;;;-5.91;100.00
12471;BME280;36499;46.484;13.832;2024-01-11T04:25:37;93805.91;;;-5.94;100.00
12471;BME280;36499;46.484;13.832;2024-01-11T04:28:04;93803.03;;;-5.86;100.00
12471;BME280;36499;46.484;13.832;2024-01-11T04:30:31;93800.50;;;-5.86;100.00
12471;BME280;36499;46.484;13.832;2024-01-11T04:32:58;93801.34;;;-5.86;100.00
12471;BME280;36499;46.484;13.832;2024-01-11T04:35:25;93799.00;;;-5.90;100.00
12471;BME280;36499;46.484;13.832;2024-01-11T04:37:52;93795.72;;;-5.92;100.00
12471;BME280;36499;46.484;13.832;2024-01-11T04:40:19;93803.53;;;-5.97;100.00
12471;BME280;36499;46.484;13.832;2024-01-11T04:42:47;93803.69;;;-6.00;100.00
12471;BME280;36499;46.484;13.832;2024-01-11T04:45:14;93806.34;;;-6.03;100.00
12471;BME280;36499;46.484;13.832;2024-01-11T04:47:41;93801.28;;;-6.03;100.00
12471;BME280;36499;46.484;13.832;2024-01-11T04:50:08;93798.81;;;-6.04;100.00
12471;BME280;36499;46.484;13.832;2024-01-11T04:52:35;93794.84;;;-6.10;100.00
12471;BME280;36499;46.484;13.832;2024-01-11T04:55:02;93795.41;;;-6.03;100.00
12471;BME280;36499;46.484;13.832;2024-01-11T04:57:29;93793.25;;;-6.12;100.00
12471;BME280;36499;46.484;13.832;2024-01-11T04:59:57;93786.28;;;-6.07;100.00
12471;BME280;36499;46.484;13.832;2024-01-11T05:02:24;93789.50;;;-6.04;100.00
12471;BME280;36499;46.484;13.832;2024-01-11T05:04:51;93792.94;;;-6.05;100.00
12471;BME280;36499;46.484;13.832;2024-01-11T05:07:18;93795.41;;;-6.03;100.00
12471;BME280;36499;46.484;13.832;2024-01-11T05:09:45;93789.72;;;-6.08;100.00
12471;BME280;36499;46.484;13.832;2024-01-11T05:12:11;93788.50;;;-6.00;100.00
12471;BME280;36499;46.484;13.832;2024-01-11T05:14:38;93780.22;;;-6.03;100.00
12471;BME280;36499;46.484;13.832;2024-01-11T05:17:07;93782.88;;;-6.06;100.00
12471;BME280;36499;46.484;13.832;2024-01-11T05:19:34;93788.06;;;-6.09;100.00
12471;BME280;36499;46.484;13.832;2024-01-11T05:22:01;93784.59;;;-6.07;100.00
12471;BME280;36499;46.484;13.832;2024-01-11T05:24:27;93784.97;;;-6.16;100.00
12471;BME280;36499;46.484;13.832;2024-01-11T05:26:54;93788.09;;;-6.30;100.00
12471;BME280;36499;46.484;13.832;2024-01-11T05:29:21;93785.44;;;-6.27;100.00
12471;BME280;36499;46.484;13.832;2024-01-11T05:31:48;93784.84;;;-6.13;100.00
12471;BME280;36499;46.484;13.832;2024-01-11T05:34:16;93784.59;;;-6.07;100.00
12471;BME280;36499;46.484;13.832;2024-01-11T05:36:43;93796.75;;;-6.15;100.00
12471;BME280;36499;46.484;13.832;2024-01-11T05:39:10;93790.88;;;-6.15;100.00
12471;BME280;36499;46.484;13.832;2024-01-11T05:41:36;93793.00;;;-6.06;100.00
12471;BME280;36499;46.484;13.832;2024-01-11T05:44:03;93785.75;;;-6.14;100.00
12471;BME280;36499;46.484;13.832;2024-01-11T05:46:31;93783.22;;;-6.14;100.00
12471;BME280;36499;46.484;13.832;2024-01-11T05:48:57;93789.53;;;-6.24;100.00
12471;BME280;36499;46.484;13.832;2024-01-11T05:51:26;93790.53;;;-6.08;100.00
12471;BME280;36499;46.484;13.832;2024-01-11T05:53:52;93796.91;;;-5.99;100.00
12471;BME280;36499;46.484;13.832;2024-01-11T05:56:19;93795.47;;;-6.05;100.00
12471;BME280;36499;46.484;13.832;2024-01-11T05:58:46;93790.41;;;-6.05;100.00
12471;BME280;36499;46.484;13.832;2024-01-11T06:01:13;93790.78;;;-6.14;100.00
12471;BME280;36499;46.484;13.832;2024-01-11T06:03:40;93784.84;;;-6.13;100.00
12471;BME280;36499;46.484;13.832;2024-01-11T06:06:07;93787.38;;;-6.13;100.00
12471;BME280;36499;46.484;13.832;2024-01-11T06:08:35;93784.19;;;-5.98;100.00
12471;BME280;36499;46.484;13.832;2024-01-11T06:11:03;93776.72;;;-6.01;100.00
12471;BME280;36499;46.484;13.832;2024-01-11T06:13:30;93770.22;;;-6.06;100.00
12471;BME280;36499;46.484;13.832;2024-01-11T06:15:56;93777.75;;;-6.05;100.00
12471;BME280;36499;46.484;13.832;2024-01-11T06:18:23;93778.91;;;-6.12;100.00
12471;BME280;36499;46.484;13.832;2024-01-11T06:20:50;93776.44;;;-6.13;100.00
12471;BME280;36499;46.484;13.832;2024-01-11T06:23:17;93782.97;;;-6.28;100.00
12471;BME280;36499;46.484;13.832;2024-01-11T06:25:46;93772.78;;;-6.27;100.00
12471;BME280;36499;46.484;13.832;2024-01-11T06:28:13;93785.19;;;-6.21;100.00
12471;BME280;36499;46.484;13.832;2024-01-11T06:30:39;93774.47;;;-6.07;100.00
12471;BME280;36499;46.484;13.832;2024-01-11T06:33:08;93775.91;;;-6.01;100.00
12471;BME280;36499;46.484;13.832;2024-01-11T06:35:35;93776.13;;;-6.06;100.00
12471;BME280;36499;46.484;13.832;2024-01-11T06:38:02;93776.44;;;-5.95;100.00
12471;BME280;36499;46.484;13.832;2024-01-11T06:40:29;93779.25;;;-6.01;100.00
12471;BME280;36499;46.484;13.832;2024-01-11T06:42:57;93778.38;;;-6.00;100.00
12471;BME280;36499;46.484;13.832;2024-01-11T06:45:24;93777.75;;;-6.05;100.00
12471;BME280;36499;46.484;13.832;2024-01-11T06:47:50;93784.38;;;-6.02;100.00
12471;BME280;36499;46.484;13.832;2024-01-11T06:50:17;93784.59;;;-6.07;100.00
12471;BME280;36499;46.484;13.832;2024-01-11T06:52:44;93786.91;;;-6.02;100.00
12471;BME280;36499;46.484;13.832;2024-01-11T06:55:11;93788.06;;;-6.09;100.00
12471;BME280;36499;46.484;13.832;2024-01-11T06:57:38;93789.84;;;-6.11;100.00
12471;BME280;36499;46.484;13.832;2024-01-11T07:00:07;93792.44;;;-6.13;100.00
12471;BME280;36499;46.484;13.832;2024-01-11T07:02:34;93788.19;;;-6.12;100.00
12471;BME280;36499;46.484;13.832;2024-01-11T07:05:01;93794.97;;;-6.13;100.00
12471;BME280;36499;46.484;13.832;2024-01-11T07:07:29;93785.47;;;-6.08;100.00
12471;BME280;36499;46.484;13.832;2024-01-11T07:09:55;93788.56;;;-6.01;100.00
12471;BME280;36499;46.484;13.832;2024-01-11T07:12:22;93788.13;;;-5.92;100.00
12471;BME280;36499;46.484;13.832;2024-01-11T07:14:49;93790.88;;;-5.97;100.00
12471;BME280;36499;46.484;13.832;2024-01-11T07:17:17;93790.88;;;-5.97;100.00
12471;BME280;36499;46.484;13.832;2024-01-11T07:19:44;93786.28;;;-6.07;100.00
12471;BME280;36499;46.484;13.832;2024-01-11T07:22:11;93787.75;;;-6.02;100.00
12471;BME280;36499;46.484;13.832;2024-01-11T07:24:38;93790.66;;;-6.11;100.00
12471;BME280;36499;46.484;13.832;2024-01-11T07:27:05;93786.56;;;-6.13;100.00
12471;BME280;36499;46.484;13.832;2024-01-11T07:29:33;93793.06;;;-6.08;100.00
12471;BME280;36499;46.484;13.832;2024-01-11T07:32:00;93786.28;;;-6.07;100.00
12471;BME280;36499;46.484;13.832;2024-01-11T07:34:30;93786.91;;;-6.02;100.00
12471;BME280;36499;46.484;13.832;2024-01-11T07:36:58;93783.69;;;-6.06;100.00
12471;BME280;36499;46.484;13.832;2024-01-11T07:39:24;93785.22;;;-6.02;100.00
12471;BME280;36499;46.484;13.832;2024-01-11T07:41:51;93786.28;;;-6.07;100.00
12471;BME280;36499;46.484;13.832;2024-01-11T07:44:18;93790.53;;;-6.08;100.00
12471;BME280;36499;46.484;13.832;2024-01-11T07:46:46;93796.34;;;-6.06;100.00
12471;BME280;36499;46.484;13.832;2024-01-11T07:49:12;93789.59;;;-6.05;100.00
12471;BME280;36499;46.484;13.832;2024-01-11T07:51:41;93786.97;;;-6.04;100.00
12471;BME280;36499;46.484;13.832;2024-01-11T07:54:07;93786.97;;;-6.04;100.00
12471;BME280;36499;46.484;13.832;2024-01-11T07:56:34;93783.69;;;-6.06;100.00
12471;BME280;36499;46.484;13.832;2024-01-11T07:59:01;93788.56;;;-6.01;100.00
12471;BME280;36499;46.484;13.832;2024-01-11T08:01:28;93786.72;;;-5.98;100.00
12471;BME280;36499;46.484;13.832;2024-01-11T08:03:55;93787.44;;;-5.96;100.00
12471;BME280;36499;46.484;13.832;2024-01-11T08:06:21;93780.16;;;-6.02;100.00
12471;BME280;36499;46.484;13.832;2024-01-11T08:08:51;93778.06;;;-5.94;100.00
12471;BME280;36499;46.484;13.832;2024-01-11T08:11:18;93776.72;;;-6.01;100.00
12471;BME280;36499;46.484;13.832;2024-01-11T08:13:45;93774.00;;;-5.96;100.00
12471;BME280;36499;46.484;13.832;2024-01-11T08:16:15;93778.75;;;-5.90;100.00
12471;BME280;36499;46.484;13.832;2024-01-11T08:18:43;93772.88;;;-5.91;100.00
12471;BME280;36499;46.484;13.832;2024-01-11T08:21:11;93773.56;;;-5.87;100.00
12471;BME280;36499;46.484;13.832;2024-01-11T08:23:39;93774.81;;;-5.77;100.00
12471;BME280;36499;46.484;13.832;2024-01-11T08:26:11;93778.97;;;-5.76;100.00
12471;BME280;36499;46.484;13.832;2024-01-11T08:28:38;93778.28;;;-5.79;100.00
12471;BME280;36499;46.484;13.832;2024-01-11T08:31:05;93775.75;;;-5.79;100.00
12471;BME280;36499;46.484;13.832;2024-01-11T08:33:32;93775.50;;;-5.73;100.00
12471;BME280;36499;46.484;13.832;2024-01-11T08:35:59;93774.59;;;-5.72;100.00
12471;BME280;36499;46.484;13.832;2024-01-11T08:38:26;93773.31;;;-5.81;100.00
12471;BME280;36499;46.484;13.832;2024-01-11T08:40:54;93772.47;;;-5.81;100.00
12471;BME280;36499;46.484;13.832;2024-01-11T08:43:22;93767.97;;;-5.75;100.00
12471;BME280;36499;46.484;13.832;2024-01-11T08:45:49;93768.03;;;-5.76;100.00
12471;BME280;36499;46.484;13.832;2024-01-11T08:48:16;93775.50;;;-5.73;100.00
12471;BME280;36499;46.484;13.832;2024-01-11T08:50:43;93774.47;;;-5.69;100.00
12471;BME280;36499;46.484;13.832;2024-01-11T08:53:10;93777.94;;;-5.72;100.00
12471;BME280;36499;46.484;13.832;2024-01-11T08:55:36;93770.09;;;-5.66;100.00
12471;BME280;36499;46.484;13.832;2024-01-11T08:58:03;93769.25;;;-5.66;100.00
12471;BME280;36499;46.484;13.832;2024-01-11T09:00:31;93772.25;;;-5.58;100.00
12471;BME280;36499;46.484;13.832;2024-01-11T09:02:58;93763.69;;;-5.56;100.00
12471;BME280;36499;46.484;13.832;2024-01-11T09:05:25;93749.78;;;-5.64;100.00
12471;BME280;36499;46.484;13.832;2024-01-11T09:07:52;93760.53;;;-5.61;100.00
12471;BME280;36499;46.484;13.832;2024-01-11T09:10:19;93746.03;;;-5.57;100.00
12471;BME280;36499;46.484;13.832;2024-01-11T09:12:46;93750.97;;;-5.54;100.00
12471;BME280;36499;46.484;13.832;2024-01-11T09:15:12;93755.06;;;-5.52;100.00
12471;BME280;36499;46.484;13.832;2024-01-11T09:17:40;93745.69;;;-5.49;100.00
12471;BME280;36499;46.484;13.832;2024-01-11T09:20:07;93746.44;;;-5.47;100.00
12471;BME280;36499;46.484;13.832;2024-01-11T09:22:39;93736.84;;;-5.41;100.00
12471;BME280;36499;46.484;13.832;2024-01-11T09:25:07;93733.81;;;-5.30;100.00
12471;BME280;36499;46.484;13.832;2024-01-11T09:27:34;93729.31;;;-5.25;100.00
12471;BME280;36499;46.484;13.832;2024-01-11T09:30:01;93712.66;;;-5.12;100.00
12471;BME280;36499;46.484;13.832;2024-01-11T09:32:27;93716.59;;;-5.06;100.00
12471;BME280;36499;46.484;13.832;2024-01-11T09:34:57;93720.25;;;-4.95;100.00
12471;BME280;36499;46.484;13.832;2024-01-11T09:37:24;93716.50;;;-4.88;100.00
12471;BME280;36499;46.484;13.832;2024-01-11T09:39:51;93714.34;;;-4.78;100.00
12471;BME280;36499;46.484;13.832;2024-01-11T09:42:18;93716.19;;;-4.64;100.00
12471;BME280;36499;46.484;13.832;2024-01-11T09:44:46;93708.47;;;-4.45;100.00
12471;BME280;36499;46.484;13.832;2024-01-11T09:47:15;93709.81;;;-4.23;100.00
12471;BME280;36499;46.484;13.832;2024-01-11T09:49:43;93702.97;;;-4.05;100.00
12471;BME280;36499;46.484;13.832;2024-01-11T09:52:13;93703.88;;;-3.90;100.00
12471;BME280;36499;46.484;13.832;2024-01-11T09:54:42;93700.56;;;-3.76;100.00
12471;BME280;36499;46.484;13.832;2024-01-11T09:57:09;93691.88;;;-3.72;100.00
12471;BME280;36499;46.484;13.832;2024-01-11T09:59:36;93689.69;;;-3.63;100.00
12471;BME280;36499;46.484;13.832;2024-01-11T10:02:03;93687.22;;;-3.64;100.00
12471;BME280;36499;46.484;13.832;2024-01-11T10:04:33;93685.72;;;-3.53;100.00
12471;BME280;36499;46.484;13.832;2024-01-11T10:07:02;93682.41;;;-3.39;100.00
12471;BME280;36499;46.484;13.832;2024-01-11T10:09:32;93673.47;;;-3.30;100.00
12471;BME280;36499;46.484;13.832;2024-01-11T10:11:59;93661.50;;;-3.28;100.00
12471;BME280;36499;46.484;13.832;2024-01-11T10:14:26;93659.16;;;-3.17;100.00
12471;BME280;36499;46.484;13.832;2024-01-11T10:16:54;93650.19;;;-3.08;100.00
12471;BME280;36499;46.484;13.832;2024-01-11T10:19:21;93653.50;;;-2.92;100.00
12471;BME280;36499;46.484;13.832;2024-01-11T10:21:47;93650.94;;;-2.78;100.00
12471;BME280;36499;46.484;13.832;2024-01-11T10:24:18;93647.53;;;-2.63;100.00
12471;BME280;36499;46.484;13.832;2024-01-11T10:26:47;93643.72;;;-2.56;100.00
12471;BME280;36499;46.484;13.832;2024-01-11T10:29:14;93636.78;;;-2.39;100.00
12471;BME280;36499;46.484;13.832;2024-01-11T10:31:40;93633.69;;;-2.30;100.00
12471;BME280;36499;46.484;13.832;2024-01-11T10:34:07;93629.81;;;-2.09;100.00
12471;BME280;36499;46.484;13.832;2024-01-11T10:36:34;93628.53;;;-2.02;100.00
12471;BME280;36499;46.484;13.832;2024-01-11T10:39:03;93629.97;;;-1.84;100.00
12471;BME280;36499;46.484;13.832;2024-01-11T10:41:38;93625.91;;;-1.73;100.00
12471;BME280;36499;46.484;13.832;2024-01-11T10:44:14;93629.19;;;-1.71;100.00
12471;BME280;36499;46.484;13.832;2024-01-11T10:46:45;93623.31;;;-1.59;100.00
12471;BME280;36499;46.484;13.832;2024-01-11T10:49:16;93620.19;;;-1.50;100.00
12471;BME280;36499;46.484;13.832;2024-01-11T10:51:45;93616.00;;;-1.51;100.00
12471;BME280;36499;46.484;13.832;2024-01-11T10:54:16;93617.75;;;-1.39;100.00
12471;BME280;36499;46.484;13.832;2024-01-11T10:56:45;93604.72;;;-1.34;100.00
12471;BME280;36499;46.484;13.832;2024-01-11T10:59:16;93599.22;;;-1.28;100.00
12471;BME280;36499;46.484;13.832;2024-01-11T11:01:44;93600.66;;;-1.24;100.00
12471;BME280;36499;46.484;13.832;2024-01-11T11:04:13;93594.34;;;-1.06;100.00
12471;BME280;36499;46.484;13.832;2024-01-11T11:06:42;93591.81;;;-0.93;100.00
12471;BME280;36499;46.484;13.832;2024-01-11T11:09:11;93588.25;;;-0.78;100.00
12471;BME280;36499;46.484;13.832;2024-01-11T11:11:40;93585.28;;;-0.85;100.00
12471;BME280;36499;46.484;13.832;2024-01-11T11:14:09;93590.69;;;-0.76;100.00
12471;BME280;36499;46.484;13.832;2024-01-11T11:16:37;93579.53;;;-0.63;100.00
12471;BME280;36499;46.484;13.832;2024-01-11T11:19:04;93578.31;;;-0.57;100.00
12471;BME280;36499;46.484;13.832;2024-01-11T11:21:30;93574.22;;;-0.47;100.00
12471;BME280;36499;46.484;13.832;2024-01-11T11:23:57;93571.31;;;-0.30;100.00
12471;BME280;36499;46.484;13.832;2024-01-11T11:26:26;93571.06;;;-0.14;100.00
12471;BME280;36499;46.484;13.832;2024-01-11T11:28:54;93562.00;;;-0.18;99.61
12471;BME280;36499;46.484;13.832;2024-01-11T11:31:37;93567.53;;;-0.00;99.96
12471;BME280;36499;46.484;13.832;2024-01-11T11:34:04;93563.63;;;0.07;98.77
12471;BME280;36499;46.484;13.832;2024-01-11T11:36:32;93556.19;;;0.04;97.86
12471;BME280;36499;46.484;13.832;2024-01-11T11:39:01;93552.78;;;-0.08;97.55
12471;BME280;36499;46.484;13.832;2024-01-11T11:41:30;93544.72;;;-0.15;100.00
12471;BME280;36499;46.484;13.832;2024-01-11T11:44:00;93543.53;;;0.02;100.00
12471;BME280;36499;46.484;13.832;2024-01-11T11:46:28;93539.34;;;0.01;100.00
12471;BME280;36499;46.484;13.832;2024-01-11T11:48:58;93541.72;;;0.15;99.57
12471;BME280;36499;46.484;13.832;2024-01-11T11:51:26;93533.47;;;0.12;99.27
12471;BME280;36499;46.484;13.832;2024-01-11T11:53:53;93527.72;;;0.21;99.42
12471;BME280;36499;46.484;13.832;2024-01-11T11:56:21;93527.94;;;0.29;99.11
12471;BME280;36499;46.484;13.832;2024-01-11T11:58:48;93521.91;;;0.30;97.72
12471;BME280;36499;46.484;13.832;2024-01-11T12:01:17;93517.41;;;0.34;97.36
12471;BME280;36499;46.484;13.832;2024-01-11T12:03:46;93510.59;;;0.45;97.18
12471;BME280;36499;46.484;13.832;2024-01-11T12:06:16;93506.56;;;0.54;94.90
12471;BME280;36499;46.484;13.832;2024-01-11T12:08:44;93501.69;;;0.62;94.54
12471;BME280;36499;46.484;13.832;2024-01-11T12:11:13;93500.63;;;0.65;92.96
12471;BME280;36499;46.484;13.832;2024-01-11T12:13:41;93495.28;;;0.68;94.12
12471;BME280;36499;46.484;13.832;2024-01-11T12:16:10;93492.16;;;0.75;94.08
12471;BME280;36499;46.484;13.832;2024-01-11T12:18:37;93481.47;;;0.81;95.26
12471;BME280;36499;46.484;13.832;2024-01-11T12:21:04;93471.78;;;0.51;92.62
12471;BME280;36499;46.484;13.832;2024-01-11T12:23:32;93470.00;;;0.41;93.50
12471;BME280;36499;46.484;13.832;2024-01-11T12:26:01;93468.06;;;0.44;96.59
12471;BME280;36499;46.484;13.832;2024-01-11T12:28:29;93468.81;;;0.23;99.63
12471;BME280;36499;46.484;13.832;2024-01-11T12:30:57;93464.53;;;0.23;100.00
12471;BME280;36499;46.484;13.832;2024-01-11T12:33:25;93466.94;;;0.13;97.50
12471;BME280;36499;46.484;13.832;2024-01-11T12:35:52;93456.06;;;-0.01;97.70
12471;BME280;36499;46.484;13.832;2024-01-11T12:38:19;93455.34;;;-0.03;97.73
12471;BME280;36499;46.484;13.832;2024-01-11T12:40:48;93449.78;;;-0.08;100.00